Salisbury, New Hampshire
Current Conditions -  °F | °C
As of 7:51 PM on Tuesday 21 Oct 2014 (Local Time) from KCON Reporting Station
Overcast Overcast  
Wind Chill: 50°   Ceiling: 800
Heat Index: 50°   Visibility: 10mi
Dew Point: 47°   Wind: 7mph
Humidity: 89%   Direction: 50°NE
Pressure: 29.99"   Gusts: NA
Location:  43.38°N, 71.72°W
Report Text: KCON 212351Z AUTO 05006KT 10SM OVC008 10/08 A2999 RMK AO2 SLP158 T01000083 10122 20100 51009
Loading
Personal Weather Stations






























Interactive Weather Map
Tropical Storm Tracking
New forecast layout! Learn more

10-Day Weather Forecast

Advertisements
Track Severe Weather on mobile